Time;durP1;ratioP1;P1;durP2;ratioP2;P2;SDS_P1;SDS_P2;PMS_P1;PMS_P2;Temp;Humidity;BMP_temperature;BMP_pressure;BME280_temperature;BME280_humidity;BME280_pressure;Samples;Min_cycle;Max_cycle;Signal;HPM_P1;HPM_P2
2022/12/31 00:02:14;;;;;;;2.05;0.20;;;12.90;99.90;;;;;;7279929;32;20112;-61
2022/12/31 00:06:30;;;;;;;0.90;0.30;;;12.90;99.90;;;;;;7269059;32;20123;-60
2022/12/31 00:10:38;;;;;;;3.80;0.30;;;13.00;99.90;;;;;;7292762;32;20150;-59
2022/12/31 00:14:40;;;;;;;0.47;0.30;;;12.90;99.90;;;;;;7268867;32;20278;-60
2022/12/31 00:18:47;;;;;;;0.90;0.35;;;12.90;99.90;;;;;;7269390;32;20135;-60
2022/12/31 00:22:48;;;;;;;0.35;0.20;;;12.80;99.90;;;;;;7277527;32;20234;-60
2022/12/31 00:26:50;;;;;;;1.42;0.30;;;12.80;99.90;;;;;;7275645;32;20112;-60
2022/12/31 00:30:52;;;;;;;0.88;0.30;;;12.70;99.90;;;;;;7283423;32;20179;-60
2022/12/31 00:34:54;;;;;;;1.95;0.35;;;12.60;99.90;;;;;;7292257;32;20195;-59
2022/12/31 00:38:57;;;;;;;0.55;0.20;;;12.60;99.90;;;;;;7296706;32;20112;-60
2022/12/31 00:42:59;;;;;;;0.75;0.30;;;12.50;99.90;;;;;;7278508;32;20680;-59
2022/12/31 00:47:00;;;;;;;1.60;1.02;;;12.60;99.90;;;;;;7280291;32;20112;-60
2022/12/31 00:51:04;;;;;;;3.15;1.52;;;12.50;99.90;;;;;;7280340;32;20792;-58
2022/12/31 00:55:07;;;;;;;1.90;0.98;;;12.50;99.90;;;;;;7295432;32;20203;-60
2022/12/31 00:59:08;;;;;;;1.75;0.90;;;12.30;99.90;;;;;;7299611;32;20128;-60
2022/12/31 01:03:10;;;;;;;1.58;1.00;;;12.30;99.90;;;;;;7275885;32;20280;-60
2022/12/31 01:07:12;;;;;;;1.87;0.85;;;12.30;99.90;;;;;;7293985;32;20116;-63
2022/12/31 01:11:23;;;;;;;2.85;1.30;;;12.20;99.90;;;;;;7301167;32;20385;-60
2022/12/31 01:15:25;;;;;;;1.30;1.10;;;12.20;99.90;;;;;;7301413;32;20119;-60
2022/12/31 01:19:28;;;;;;;1.83;0.62;;;12.30;99.90;;;;;;7297294;32;20192;-60
2022/12/31 01:23:30;;;;;;;3.83;0.80;;;12.20;99.90;;;;;;7293182;32;20257;-60
2022/12/31 01:27:32;;;;;;;2.65;0.93;;;12.20;99.90;;;;;;7300216;32;20167;-59
2022/12/31 01:31:35;;;;;;;1.98;0.98;;;12.30;99.90;;;;;;7295874;32;20167;-62
2022/12/31 01:35:37;;;;;;;1.62;0.80;;;12.30;99.90;;;;;;7287264;32;20177;-59
2022/12/31 01:39:38;;;;;;;3.62;0.90;;;12.40;99.90;;;;;;7285700;32;20176;-59
2022/12/31 01:43:49;;;;;;;2.85;0.73;;;12.40;99.90;;;;;;7299778;32;20195;-59
2022/12/31 01:47:56;;;;;;;3.20;0.70;;;12.50;99.90;;;;;;7298476;32;20120;-60
2022/12/31 01:52:12;;;;;;;1.05;0.40;;;12.60;99.90;;;;;;7283050;32;20254;-60
2022/12/31 01:56:15;;;;;;;1.83;0.50;;;12.70;99.90;;;;;;7287658;32;20642;-58
2022/12/31 02:00:17;;;;;;;1.27;0.32;;;12.70;99.90;;;;;;7286034;32;20111;-59
2022/12/31 02:04:21;;;;;;;1.83;0.40;;;12.80;99.90;;;;;;7273547;32;20119;-59
2022/12/31 02:08:23;;;;;;;0.40;0.25;;;12.90;99.90;;;;;;7287623;32;20115;-59
2022/12/31 02:12:25;;;;;;;0.85;0.22;;;13.10;99.90;;;;;;7285050;32;20219;-60
2022/12/31 02:16:47;;;;;;;0.90;0.32;;;13.10;99.90;;;;;;7295999;32;20527;-60
2022/12/31 02:21:02;;;;;;;0.45;0.10;;;13.10;99.90;;;;;;7280277;32;20153;-59
2022/12/31 02:25:37;;;;;;;0.20;0.08;;;13.30;99.90;;;;;;7295458;32;20242;-60
2022/12/31 02:30:17;;;;;;;0.13;0.08;;;13.80;99.90;;;;;;7294300;32;20171;-59
2022/12/31 02:34:47;;;;;;;0.17;0.03;;;13.90;99.90;;;;;;7295842;32;20107;-59
2022/12/31 02:38:50;;;;;;;0.10;0.00;;;14.10;99.90;;;;;;7276649;32;20232;-59
2022/12/31 02:42:52;;;;;;;1.25;0.00;;;14.30;99.90;;;;;;7293570;32;20390;-59
2022/12/31 02:47:24;;;;;;;0.20;0.00;;;14.50;99.90;;;;;;7295456;32;20104;-60
2022/12/31 02:51:52;;;;;;;0.15;0.10;;;14.50;99.90;;;;;;7295637;32;21452;-58
2022/12/31 02:56:03;;;;;;;0.30;0.03;;;14.60;99.90;;;;;;7293433;32;20439;-61
2022/12/31 03:04:32;;;;;;;0.13;0.00;;;14.60;99.90;;;;;;7292053;32;20126;-59
2022/12/31 03:09:11;;;;;;;0.60;0.05;;;14.70;99.90;;;;;;7267894;32;20901;-60
2022/12/31 03:12:57;;;;;;;0.30;0.10;;;14.70;99.90;;;;;;7287174;32;20173;-59
2022/12/31 03:16:58;;;;;;;0.30;0.13;;;14.80;99.90;;;;;;7281966;32;20186;-60
2022/12/31 03:25:33;;;;;;;0.20;0.00;;;14.90;99.90;;;;;;7285985;32;20269;-59
2022/12/31 03:29:35;;;;;;;0.20;0.10;;;14.90;99.90;;;;;;7294741;32;20108;-61
2022/12/31 03:33:40;;;;;;;0.68;0.10;;;14.90;99.90;;;;;;7295216;32;20570;-59
2022/12/31 03:37:42;;;;;;;1.17;0.10;;;15.00;99.90;;;;;;7296080;32;20137;-59
2022/12/31 03:41:44;;;;;;;0.75;0.10;;;15.00;99.90;;;;;;7279585;32;20268;-59
2022/12/31 03:45:50;;;;;;;0.30;0.03;;;15.00;99.90;;;;;;7279032;32;20210;-59
2022/12/31 03:49:52;;;;;;;0.47;0.10;;;15.10;99.90;;;;;;7272303;32;20561;-59
2022/12/31 03:53:54;;;;;;;2.35;0.43;;;15.00;99.90;;;;;;7275398;32;20210;-59
2022/12/31 03:57:56;;;;;;;1.98;0.22;;;15.10;99.90;;;;;;7287472;32;20280;-61
2022/12/31 04:01:57;;;;;;;1.77;0.10;;;15.10;99.90;;;;;;7286407;32;20151;-59
2022/12/31 04:05:59;;;;;;;1.05;0.10;;;15.00;99.90;;;;;;7285471;32;20663;-61
2022/12/31 04:10:03;;;;;;;0.43;0.10;;;15.00;99.90;;;;;;7290363;32;20743;-60
2022/12/31 04:14:04;;;;;;;0.57;0.03;;;15.00;99.90;;;;;;7294115;32;20573;-61
2022/12/31 04:18:06;;;;;;;2.37;0.10;;;14.90;99.90;;;;;;7292774;32;20698;-62
2022/12/31 04:22:08;;;;;;;1.33;0.15;;;14.90;99.90;;;;;;7295442;32;20528;-62
2022/12/31 04:26:10;;;;;;;0.90;0.10;;;15.00;99.90;;;;;;7292702;32;20524;-60
2022/12/31 04:30:12;;;;;;;1.08;0.10;;;14.90;99.90;;;;;;7292901;32;20405;-59
2022/12/31 04:34:14;;;;;;;1.87;0.10;;;14.90;99.90;;;;;;7293974;32;20203;-61
2022/12/31 04:38:16;;;;;;;0.35;0.10;;;15.00;99.90;;;;;;7293957;32;20322;-60
2022/12/31 04:42:17;;;;;;;0.73;0.15;;;14.90;99.90;;;;;;7282202;32;20440;-59
2022/12/31 04:46:31;;;;;;;1.45;0.30;;;15.00;99.90;;;;;;7275399;32;20230;-60
2022/12/31 04:50:33;;;;;;;2.70;0.20;;;15.10;99.90;;;;;;7268123;32;20204;-59
2022/12/31 04:54:35;;;;;;;2.37;0.10;;;15.10;99.90;;;;;;7296002;32;20199;-61
2022/12/31 04:58:37;;;;;;;0.25;0.10;;;15.10;99.90;;;;;;7296229;32;20128;-59
2022/12/31 05:02:39;;;;;;;0.85;0.20;;;15.20;99.90;;;;;;7267576;32;20737;-60
2022/12/31 05:06:41;;;;;;;0.35;0.20;;;15.30;99.90;;;;;;7292060;32;20412;-60
2022/12/31 05:10:45;;;;;;;2.58;0.10;;;15.30;99.90;;;;;;7295240;32;20100;-59
2022/12/31 05:14:47;;;;;;;1.00;0.10;;;15.30;99.90;;;;;;7281156;32;20187;-59
2022/12/31 05:18:48;;;;;;;0.68;0.17;;;15.40;99.90;;;;;;7280461;32;20283;-59
2022/12/31 05:22:50;;;;;;;0.75;0.00;;;15.40;99.90;;;;;;7293926;32;21227;-59
2022/12/31 05:26:52;;;;;;;3.22;0.30;;;15.50;99.90;;;;;;7288384;32;20099;-59
2022/12/31 05:30:54;;;;;;;1.65;0.20;;;15.50;99.90;;;;;;7293802;32;20266;-60
2022/12/31 05:34:58;;;;;;;2.72;0.32;;;15.60;99.90;;;;;;7290267;32;20397;-59
2022/12/31 05:39:00;;;;;;;1.20;0.20;;;15.60;99.90;;;;;;7292132;32;20136;-58
2022/12/31 05:43:02;;;;;;;2.80;0.25;;;15.60;99.90;;;;;;7298366;32;20229;-59
2022/12/31 05:47:03;;;;;;;0.95;0.20;;;15.50;99.90;;;;;;7298297;32;20170;-59
2022/12/31 05:51:05;;;;;;;1.40;0.30;;;15.50;99.90;;;;;;7285739;32;20571;-60
2022/12/31 05:55:08;;;;;;;1.33;0.30;;;15.60;99.90;;;;;;7299020;32;20424;-59
2022/12/31 05:59:09;;;;;;;2.45;0.30;;;15.60;99.90;;;;;;7297524;32;20174;-59
2022/12/31 06:03:11;;;;;;;0.60;0.20;;;15.60;99.90;;;;;;7295033;32;20442;-59
2022/12/31 06:07:13;;;;;;;2.87;0.20;;;15.60;99.90;;;;;;7283638;32;20318;-60
2022/12/31 06:11:15;;;;;;;2.25;0.30;;;15.60;99.90;;;;;;7298165;32;20219;-61
2022/12/31 06:15:17;;;;;;;2.80;0.32;;;15.50;99.90;;;;;;7281149;32;20130;-60
2022/12/31 06:19:19;;;;;;;3.03;0.30;;;15.60;99.90;;;;;;7281179;32;20660;-59
2022/12/31 06:23:20;;;;;;;1.60;0.30;;;15.60;99.90;;;;;;7286696;32;20352;-59
2022/12/31 06:27:22;;;;;;;2.03;0.60;;;15.60;99.90;;;;;;7298346;32;20623;-60
2022/12/31 06:31:24;;;;;;;1.65;0.30;;;15.60;99.90;;;;;;7281592;32;20231;-62
2022/12/31 06:35:26;;;;;;;3.55;0.50;;;15.60;99.90;;;;;;7298755;32;20327;-62
2022/12/31 06:39:28;;;;;;;2.90;0.35;;;15.70;99.90;;;;;;7295657;32;20194;-60
2022/12/31 06:43:29;;;;;;;2.58;0.30;;;15.60;99.90;;;;;;7296169;32;20126;-59
2022/12/31 06:47:31;;;;;;;0.80;0.30;;;15.70;99.90;;;;;;7297179;32;20237;-60
2022/12/31 06:51:33;;;;;;;1.23;0.28;;;15.70;99.90;;;;;;7291119;32;20636;-60
2022/12/31 06:55:35;;;;;;;2.45;0.20;;;15.80;99.90;;;;;;7280377;32;20574;-60
2022/12/31 06:59:37;;;;;;;3.80;0.50;;;15.70;99.90;;;;;;7269124;32;20155;-60
2022/12/31 07:04:12;;;;;;;3.58;0.50;;;15.80;99.90;;;;;;7280999;32;20579;-60
2022/12/31 07:08:38;;;;;;;1.55;0.30;;;15.80;99.90;;;;;;7282823;32;20104;-60
2022/12/31 07:12:58;;;;;;;2.33;0.60;;;15.90;99.90;;;;;;7279995;32;20115;-60
2022/12/31 07:17:33;;;;;;;1.90;0.30;;;15.90;99.90;;;;;;7296089;32;20112;-59
2022/12/31 07:21:38;;;;;;;1.08;0.28;;;15.90;99.90;;;;;;7296632;32;20104;-60
2022/12/31 07:25:48;;;;;;;3.40;0.47;;;15.80;99.90;;;;;;7296328;32;20125;-62
2022/12/31 07:30:11;;;;;;;2.10;0.30;;;15.90;99.90;;;;;;7297520;32;20126;-60
2022/12/31 07:34:20;;;;;;;3.15;0.50;;;15.80;99.90;;;;;;7292908;32;20154;-60
2022/12/31 07:38:51;;;;;;;1.60;0.40;;;15.90;99.90;;;;;;7293222;32;20123;-60
2022/12/31 07:43:09;;;;;;;2.45;0.50;;;15.80;99.90;;;;;;7289711;32;20202;-60
2022/12/31 07:47:26;;;;;;;3.25;0.40;;;15.70;99.90;;;;;;7293144;32;20161;-60
2022/12/31 07:51:28;;;;;;;2.37;0.40;;;15.80;99.90;;;;;;7289262;32;20790;-60
2022/12/31 07:55:30;;;;;;;1.27;0.50;;;15.90;99.90;;;;;;7289181;32;20096;-60
2022/12/31 07:59:43;;;;;;;3.40;0.40;;;16.00;99.90;;;;;;7293133;32;20529;-60
2022/12/31 08:04:28;;;;;;;1.85;0.50;;;16.00;99.90;;;;;;7293801;32;20205;-63
2022/12/31 08:09:03;;;;;;;1.77;0.60;;;16.00;99.90;;;;;;7260852;32;20095;-63
2022/12/31 08:13:09;;;;;;;2.22;0.30;;;16.10;99.90;;;;;;7292182;32;20273;-63
2022/12/31 08:17:14;;;;;;;4.25;0.50;;;16.10;99.90;;;;;;7291614;32;20181;-63
2022/12/31 08:21:32;;;;;;;2.97;0.55;;;16.20;99.90;;;;;;7292598;32;20224;-63
2022/12/31 08:25:59;;;;;;;1.37;0.40;;;16.20;99.90;;;;;;7294090;32;20568;-62
2022/12/31 08:30:09;;;;;;;3.15;0.50;;;16.20;99.90;;;;;;7294790;32;20559;-62
2022/12/31 08:34:25;;;;;;;4.43;0.75;;;16.20;99.90;;;;;;7282140;32;20127;-62
2022/12/31 08:39:06;;;;;;;2.78;0.37;;;16.30;99.90;;;;;;7290071;32;20386;-62
2022/12/31 08:43:11;;;;;;;1.80;0.40;;;16.30;99.90;;;;;;7260386;32;20821;-63
2022/12/31 08:47:31;;;;;;;2.65;0.50;;;16.40;99.90;;;;;;7288171;32;20127;-63
2022/12/31 08:51:39;;;;;;;3.15;0.62;;;16.30;99.90;;;;;;7280340;32;20128;-65
2022/12/31 08:55:43;;;;;;;1.50;0.50;;;16.40;99.90;;;;;;7285204;32;20187;-64
2022/12/31 09:00:11;;;;;;;3.37;0.50;;;16.30;99.90;;;;;;7286181;32;20166;-65
2022/12/31 09:04:52;;;;;;;1.67;0.60;;;16.40;99.90;;;;;;7276220;32;20350;-65
2022/12/31 09:09:13;;;;;;;4.53;0.62;;;16.40;99.90;;;;;;7285345;32;20124;-65
2022/12/31 09:13:15;;;;;;;6.47;0.68;;;16.40;99.90;;;;;;7291457;32;20095;-63
2022/12/31 09:17:32;;;;;;;2.65;0.62;;;16.30;99.90;;;;;;7289238;32;20581;-63
2022/12/31 09:21:33;;;;;;;2.53;0.50;;;16.40;99.90;;;;;;7292815;32;20190;-65
2022/12/31 09:25:50;;;;;;;3.58;0.60;;;16.40;99.90;;;;;;7294740;32;20088;-66
2022/12/31 09:29:54;;;;;;;2.67;0.55;;;16.40;99.90;;;;;;7296433;32;20104;-64
2022/12/31 09:34:10;;;;;;;2.85;0.60;;;16.40;99.90;;;;;;7298438;32;20187;-65
2022/12/31 09:38:33;;;;;;;2.15;0.77;;;16.40;99.90;;;;;;7288251;32;20123;-62
2022/12/31 09:43:10;;;;;;;1.23;0.52;;;16.40;99.90;;;;;;7278346;32;20530;-65
2022/12/31 09:47:29;;;;;;;3.87;0.70;;;16.40;99.90;;;;;;7290207;32;20100;-57
2022/12/31 09:51:43;;;;;;;4.25;0.75;;;16.30;99.90;;;;;;7293457;32;20130;-58
2022/12/31 09:56:04;;;;;;;4.35;0.80;;;16.50;99.90;;;;;;7294996;32;20120;-64
2022/12/31 10:00:10;;;;;;;2.87;0.60;;;16.50;99.90;;;;;;7287406;32;20154;-64
2022/12/31 10:04:33;;;;;;;1.87;0.50;;;16.50;99.90;;;;;;7294667;32;20108;-64
2022/12/31 10:09:04;;;;;;;2.25;0.70;;;16.50;99.90;;;;;;7296186;32;20529;-64
2022/12/31 10:13:15;;;;;;;4.30;0.62;;;16.50;99.90;;;;;;7296540;32;20781;-66
2022/12/31 10:17:35;;;;;;;3.22;0.75;;;16.70;99.90;;;;;;7296784;32;20548;-64
2022/12/31 10:21:46;;;;;;;3.12;0.70;;;16.70;99.90;;;;;;7299352;32;20112;-64
2022/12/31 10:26:25;;;;;;;7.00;0.80;;;16.70;99.90;;;;;;7295087;32;20134;-63
2022/12/31 10:30:33;;;;;;;2.53;0.40;;;16.90;99.90;;;;;;7294463;32;20267;-64
2022/12/31 10:34:51;;;;;;;6.10;0.70;;;17.00;99.90;;;;;;7293089;32;20199;-65
2022/12/31 10:39:17;;;;;;;4.68;0.80;;;16.90;99.90;;;;;;7300444;32;20530;-64
2022/12/31 10:43:42;;;;;;;3.58;0.90;;;16.90;99.90;;;;;;7296505;32;20175;-64
2022/12/31 10:48:06;;;;;;;4.20;0.60;;;16.80;99.90;;;;;;7292556;32;20129;-65
2022/12/31 10:52:14;;;;;;;5.82;0.62;;;16.80;99.90;;;;;;7294922;32;20135;-63
2022/12/31 10:56:49;;;;;;;5.25;0.62;;;16.90;99.90;;;;;;7291054;32;20184;-62
2022/12/31 11:01:03;;;;;;;7.32;0.80;;;16.80;99.90;;;;;;7295128;32;20275;-64
2022/12/31 11:05:08;;;;;;;4.25;0.98;;;16.90;99.90;;;;;;7294287;32;20183;-64
2022/12/31 11:09:28;;;;;;;4.28;0.75;;;16.80;99.90;;;;;;7295483;32;20143;-65
2022/12/31 11:13:47;;;;;;;3.97;0.70;;;16.90;99.90;;;;;;7293566;32;20222;-64
2022/12/31 11:17:58;;;;;;;4.22;0.80;;;17.00;99.90;;;;;;7295076;32;20556;-65
2022/12/31 11:22:13;;;;;;;4.72;0.93;;;17.10;99.90;;;;;;7280020;32;20594;-65
2022/12/31 11:27:09;;;;;;;3.37;1.10;;;17.00;99.90;;;;;;7292254;32;20117;-65
2022/12/31 11:31:14;;;;;;;4.32;0.80;;;16.90;99.90;;;;;;7260246;32;20224;-65
2022/12/31 11:35:44;;;;;;;4.20;0.80;;;16.80;99.90;;;;;;7295289;32;20168;-65
2022/12/31 11:40:22;;;;;;;3.90;0.90;;;16.90;99.90;;;;;;7292657;32;20183;-65
2022/12/31 11:44:39;;;;;;;;;;;16.90;99.90;;;;;;7293718;32;20937;-65
2022/12/31 11:49:05;;;;;;;3.83;0.90;;;16.80;99.90;;;;;;7294166;32;20431;-64
2022/12/31 11:53:56;;;;;;;4.30;0.88;;;16.80;99.90;;;;;;7295817;32;20913;-65
2022/12/31 11:58:07;;;;;;;3.17;0.60;;;16.80;99.90;;;;;;7284162;32;20322;-65
2022/12/31 12:02:19;;;;;;;2.80;0.65;;;16.80;99.90;;;;;;7293169;32;20542;-65
2022/12/31 12:06:27;;;;;;;6.12;0.85;;;16.80;99.90;;;;;;7291783;32;20166;-65
2022/12/31 12:10:37;;;;;;;4.70;0.70;;;16.80;99.90;;;;;;7287124;32;20100;-64
2022/12/31 12:14:41;;;;;;;4.60;1.00;;;16.70;99.90;;;;;;7292848;32;21378;-63
2022/12/31 12:18:43;;;;;;;4.30;1.05;;;16.70;99.90;;;;;;7290618;32;20104;-63
2022/12/31 12:22:55;;;;;;;7.00;0.90;;;16.70;99.90;;;;;;7295505;32;20134;-64
2022/12/31 12:26:57;;;;;;;6.50;1.00;;;16.70;99.90;;;;;;7294899;32;20200;-64
2022/12/31 12:31:03;;;;;;;3.87;0.70;;;16.60;99.90;;;;;;7290157;32;20507;-63
2022/12/31 12:35:13;;;;;;;4.78;0.93;;;16.70;99.90;;;;;;7283989;32;20135;-61
2022/12/31 12:39:21;;;;;;;8.20;0.73;;;16.50;99.90;;;;;;7292716;32;20134;-62
2022/12/31 12:43:35;;;;;;;4.85;1.00;;;16.40;99.90;;;;;;7291124;32;20487;-63
2022/12/31 12:47:39;;;;;;;4.07;0.73;;;16.60;99.90;;;;;;7291593;32;20560;-63
2022/12/31 12:52:18;;;;;;;5.35;1.05;;;16.50;99.90;;;;;;7291728;32;20699;-63
2022/12/31 12:56:45;;;;;;;3.60;0.82;;;16.40;99.90;;;;;;7295332;32;20294;-62
2022/12/31 13:00:53;;;;;;;3.63;0.77;;;16.50;99.90;;;;;;7289873;32;20111;-64
2022/12/31 13:05:20;;;;;;;3.72;0.75;;;16.60;99.90;;;;;;7289067;32;20119;-63
2022/12/31 13:09:43;;;;;;;3.65;1.00;;;16.70;99.90;;;;;;7261319;32;20100;-63
2022/12/31 13:13:51;;;;;;;5.53;1.02;;;16.70;99.90;;;;;;7286690;32;20132;-63
2022/12/31 13:18:14;;;;;;;4.07;0.90;;;16.70;99.90;;;;;;7294542;32;20557;-63
2022/12/31 13:22:49;;;;;;;6.35;0.90;;;16.60;99.90;;;;;;7291844;32;20100;-63
2022/12/31 13:27:07;;;;;;;6.12;0.77;;;16.30;99.90;;;;;;7293759;32;20192;-63
2022/12/31 13:31:14;;;;;;;6.95;1.20;;;16.10;99.90;;;;;;7292323;32;20535;-62
2022/12/31 13:35:26;;;;;;;2.00;0.63;;;16.00;99.90;;;;;;7289908;32;20209;-64
2022/12/31 13:39:32;;;;;;;5.90;1.20;;;16.10;99.90;;;;;;7289642;32;20131;-62
2022/12/31 13:43:52;;;;;;;4.65;1.00;;;16.20;99.90;;;;;;7290630;32;20200;-63
2022/12/31 13:48:04;;;;;;;3.25;0.65;;;16.30;99.90;;;;;;7293392;32;20195;-62
2022/12/31 13:52:09;;;;;;;2.58;0.68;;;16.40;99.90;;;;;;7290031;32;20096;-63
2022/12/31 13:56:17;;;;;;;3.62;1.20;;;16.40;99.90;;;;;;7293102;32;20100;-63
2022/12/31 14:00:48;;;;;;;5.32;1.10;;;16.40;99.90;;;;;;7288920;32;20119;-63
2022/12/31 14:04:57;;;;;;;7.57;0.93;;;16.40;99.90;;;;;;7294000;32;20166;-63
2022/12/31 14:09:00;;;;;;;4.05;1.12;;;16.40;99.90;;;;;;7297821;32;20295;-63
2022/12/31 14:13:35;;;;;;;4.78;1.00;;;16.30;99.90;;;;;;7296840;32;20100;-63
2022/12/31 14:17:43;;;;;;;6.93;1.02;;;16.20;99.90;;;;;;7296305;32;20122;-63
2022/12/31 14:22:01;;;;;;;4.53;1.17;;;16.20;99.90;;;;;;7296297;32;20119;-66
2022/12/31 14:26:27;;;;;;;3.97;1.10;;;16.20;99.90;;;;;;7298441;32;20124;-64
2022/12/31 14:30:35;;;;;;;4.78;1.10;;;16.10;99.90;;;;;;7291442;32;20536;-58
2022/12/31 14:34:46;;;;;;;7.12;1.17;;;16.10;99.90;;;;;;7295389;32;20226;-59
2022/12/31 14:39:08;;;;;;;4.93;1.15;;;16.10;99.90;;;;;;7288410;32;20134;-64
2022/12/31 14:43:16;;;;;;;7.95;1.30;;;16.00;99.90;;;;;;7297156;32;20104;-63
2022/12/31 14:47:36;;;;;;;5.60;1.30;;;15.80;99.90;;;;;;7295773;32;20274;-63
2022/12/31 14:51:38;;;;;;;8.70;1.30;;;15.60;99.90;;;;;;7293868;32;20225;-63
2022/12/31 14:55:40;;;;;;;7.07;1.50;;;15.60;99.90;;;;;;7296416;32;20134;-63
2022/12/31 14:59:58;;;;;;;5.40;1.23;;;15.50;99.90;;;;;;7295558;32;20104;-63
2022/12/31 15:04:01;;;;;;;3.75;1.20;;;15.50;99.90;;;;;;7293763;32;20105;-64
2022/12/31 15:08:21;;;;;;;5.95;1.37;;;15.40;99.90;;;;;;7294744;32;20156;-63
2022/12/31 15:12:57;;;;;;;5.87;1.30;;;15.30;99.90;;;;;;7292010;32;20550;-64
2022/12/31 15:17:17;;;;;;;3.95;1.50;;;15.30;99.90;;;;;;7287963;32;20231;-58
2022/12/31 15:21:30;;;;;;;3.70;1.10;;;15.50;99.90;;;;;;7283615;32;20214;-59
2022/12/31 15:25:37;;;;;;;3.08;1.30;;;15.40;99.90;;;;;;7286782;32;20191;-59
2022/12/31 15:29:44;;;;;;;5.30;1.40;;;15.40;99.90;;;;;;7292613;32;20610;-59
2022/12/31 15:34:05;;;;;;;6.05;1.35;;;15.50;99.90;;;;;;7277014;32;20787;-60
2022/12/31 15:38:10;;;;;;;4.72;1.10;;;15.40;99.90;;;;;;7292490;32;20241;-59
2022/12/31 15:42:40;;;;;;;3.35;0.98;;;15.40;99.90;;;;;;7289958;32;20489;-60
2022/12/31 15:47:07;;;;;;;5.32;1.50;;;15.40;99.90;;;;;;7293893;32;20126;-60
2022/12/31 15:51:21;;;;;;;2.87;1.15;;;15.40;99.90;;;;;;7288796;32;20366;-60
2022/12/31 15:55:31;;;;;;;4.43;1.10;;;15.40;99.90;;;;;;7292799;32;20277;-61
2022/12/31 15:59:33;;;;;;;6.53;1.60;;;15.40;99.90;;;;;;7290415;32;20157;-64
2022/12/31 16:03:35;;;;;;;4.87;1.30;;;15.40;99.90;;;;;;7290623;32;20128;-64
2022/12/31 16:07:37;;;;;;;4.10;1.35;;;15.40;99.90;;;;;;7289662;32;20530;-65
2022/12/31 16:11:40;;;;;;;4.85;1.60;;;15.40;99.90;;;;;;7287145;32;21808;-62
2022/12/31 16:15:42;;;;;;;3.15;1.30;;;15.40;99.90;;;;;;7289063;32;20245;-62
2022/12/31 16:19:47;;;;;;;4.50;1.10;;;15.40;99.90;;;;;;7291088;32;20266;-61
2022/12/31 16:23:51;;;;;;;5.97;1.10;;;15.40;99.90;;;;;;7291391;32;20100;-60
2022/12/31 16:27:54;;;;;;;3.05;1.17;;;15.40;99.90;;;;;;7286038;32;20118;-60
2022/12/31 16:31:56;;;;;;;3.28;1.00;;;15.50;99.90;;;;;;7287744;32;20095;-61
2022/12/31 16:36:00;;;;;;;3.65;1.10;;;15.50;99.90;;;;;;7296033;32;20104;-63
2022/12/31 16:40:20;;;;;;;3.83;1.17;;;15.50;99.90;;;;;;7291961;32;20108;-63
2022/12/31 16:44:27;;;;;;;2.65;1.45;;;15.40;99.90;;;;;;7282080;32;20217;-63
2022/12/31 16:48:29;;;;;;;4.37;1.15;;;15.40;99.90;;;;;;7292084;32;20242;-63
2022/12/31 16:52:40;;;;;;;3.85;1.10;;;15.40;99.90;;;;;;7278013;32;20261;-62
2022/12/31 16:56:43;;;;;;;4.03;1.25;;;15.30;99.90;;;;;;7295646;32;20100;-62
2022/12/31 17:00:46;;;;;;;7.05;1.33;;;15.30;99.90;;;;;;7295746;32;20284;-62
2022/12/31 17:04:50;;;;;;;4.85;1.15;;;15.30;99.90;;;;;;7294271;32;20299;-63
2022/12/31 17:08:58;;;;;;;3.50;1.10;;;15.30;99.90;;;;;;7297329;32;20242;-62
2022/12/31 17:13:02;;;;;;;6.30;1.45;;;15.20;99.90;;;;;;7292159;32;20199;-63
2022/12/31 17:17:28;;;;;;;3.33;1.10;;;15.20;99.90;;;;;;7295510;32;20219;-62
2022/12/31 17:21:31;;;;;;;5.18;0.93;;;15.10;99.90;;;;;;7289127;32;20241;-62
2022/12/31 17:25:35;;;;;;;4.60;1.60;;;15.10;99.90;;;;;;7289957;32;20127;-62
2022/12/31 17:29:37;;;;;;;3.72;1.50;;;15.10;99.90;;;;;;7292130;32;22064;-62
2022/12/31 17:33:40;;;;;;;3.05;1.45;;;15.00;99.90;;;;;;7287848;32;20173;-62
2022/12/31 17:37:42;;;;;;;4.82;1.40;;;15.00;99.90;;;;;;7277249;32;20130;-62
2022/12/31 17:41:46;;;;;;;5.18;1.40;;;15.10;99.90;;;;;;7286724;32;20122;-62
2022/12/31 17:45:53;;;;;;;8.75;1.30;;;15.00;99.90;;;;;;7294839;32;20153;-62
2022/12/31 17:49:55;;;;;;;4.72;1.40;;;15.00;99.90;;;;;;7293955;32;20097;-62
2022/12/31 17:53:59;;;;;;;3.67;1.40;;;15.00;99.90;;;;;;7293158;32;20601;-62
2022/12/31 17:58:04;;;;;;;3.97;1.40;;;15.00;99.90;;;;;;7284812;32;20252;-61
2022/12/31 18:02:11;;;;;;;3.05;1.30;;;15.00;99.90;;;;;;7298798;32;20650;-61
2022/12/31 18:06:14;;;;;;;;;;;15.00;99.90;;;;;;7282112;32;20675;-61
2022/12/31 18:10:20;;;;;;;5.03;1.33;;;15.00;99.90;;;;;;7300470;32;19998;-61
2022/12/31 18:14:22;;;;;;;3.50;1.48;;;15.10;99.90;;;;;;7276026;32;20305;-61
2022/12/31 18:18:26;;;;;;;5.25;1.58;;;15.00;99.90;;;;;;7292661;32;20519;-62
2022/12/31 18:22:28;;;;;;;6.22;1.80;;;15.00;99.90;;;;;;7298279;32;20112;-62
2022/12/31 18:26:33;;;;;;;3.83;1.25;;;14.90;99.90;;;;;;7293380;32;20218;-60
2022/12/31 18:30:35;;;;;;;3.72;1.70;;;14.90;99.90;;;;;;7297695;32;20123;-63
2022/12/31 18:34:37;;;;;;;7.87;2.95;;;14.80;99.90;;;;;;7284774;32;20109;-62
2022/12/31 18:38:39;;;;;;;5.50;1.80;;;14.80;99.90;;;;;;7296394;32;20109;-61
2022/12/31 18:42:41;;;;;;;3.15;1.58;;;14.80;99.90;;;;;;7296007;32;20642;-62
2022/12/31 18:46:43;;;;;;;7.35;2.53;;;14.80;99.90;;;;;;7299979;32;20551;-63
2022/12/31 18:50:46;;;;;;;6.15;2.30;;;14.80;99.90;;;;;;7297143;32;20103;-63
2022/12/31 18:54:48;;;;;;;4.10;1.80;;;14.70;99.90;;;;;;7294634;32;20095;-61
2022/12/31 18:58:50;;;;;;;6.85;1.95;;;14.80;99.90;;;;;;7297721;32;20199;-60
2022/12/31 19:02:52;;;;;;;7.87;1.87;;;14.80;99.90;;;;;;7294897;32;20128;-60
2022/12/31 19:06:54;;;;;;;5.87;1.80;;;14.80;99.90;;;;;;7293143;32;20123;-60
2022/12/31 19:10:56;;;;;;;6.95;2.62;;;14.80;99.90;;;;;;7282705;32;20593;-61
2022/12/31 19:14:58;;;;;;;8.30;2.20;;;14.80;99.90;;;;;;7290414;32;20103;-60
2022/12/31 19:19:00;;;;;;;9.55;1.90;;;14.80;99.90;;;;;;7293940;32;20103;-60
2022/12/31 19:23:17;;;;;;;4.43;1.58;;;14.70;99.90;;;;;;7295089;32;20133;-60
2022/12/31 19:27:19;;;;;;;7.87;2.12;;;14.70;99.90;;;;;;7284935;32;20190;-61
2022/12/31 19:31:20;;;;;;;7.72;1.92;;;14.70;99.90;;;;;;7294396;32;20183;-60
2022/12/31 19:35:23;;;;;;;5.72;2.20;;;14.80;99.90;;;;;;7295085;32;20119;-60
2022/12/31 19:39:25;;;;;;;8.32;1.70;;;14.70;99.90;;;;;;7293063;32;20419;-60
2022/12/31 19:43:26;;;;;;;4.78;1.80;;;14.80;99.90;;;;;;7296333;32;20135;-60
2022/12/31 19:47:28;;;;;;;7.93;2.55;;;14.70;99.90;;;;;;7267768;32;20100;-60
2022/12/31 19:51:30;;;;;;;5.50;1.67;;;14.70;99.90;;;;;;7295488;32;20111;-60
2022/12/31 19:55:32;;;;;;;7.97;2.47;;;14.70;99.90;;;;;;7295621;32;20122;-61
2022/12/31 19:59:33;;;;;;;8.13;1.90;;;14.70;99.90;;;;;;7296859;32;20183;-60
2022/12/31 20:03:35;;;;;;;8.23;1.60;;;14.80;99.90;;;;;;7298481;32;20099;-60
2022/12/31 20:07:37;;;;;;;7.00;1.52;;;14.80;99.90;;;;;;7291721;32;20256;-61
2022/12/31 20:11:39;;;;;;;7.90;1.40;;;14.80;99.90;;;;;;7295307;32;20104;-60
2022/12/31 20:15:46;;;;;;;7.65;2.37;;;14.80;99.90;;;;;;7294817;32;20201;-61
2022/12/31 20:19:48;;;;;;;9.15;2.12;;;14.80;99.90;;;;;;7295346;32;20265;-60
2022/12/31 20:23:51;;;;;;;11.82;2.62;;;14.70;99.90;;;;;;7295081;32;20307;-60
2022/12/31 20:27:54;;;;;;;8.32;2.12;;;14.70;99.90;;;;;;7291755;32;20603;-64
2022/12/31 20:31:55;;;;;;;5.78;1.90;;;14.90;99.90;;;;;;7295777;32;20096;-62
2022/12/31 20:36:04;;;;;;;8.77;2.05;;;15.00;99.90;;;;;;7291378;32;20237;-64
2022/12/31 20:40:06;;;;;;;11.98;2.80;;;15.20;99.90;;;;;;7291022;32;20298;-64
2022/12/31 20:44:08;;;;;;;11.60;2.17;;;15.10;99.90;;;;;;7289315;32;20214;-61
2022/12/31 20:48:10;;;;;;;8.77;2.00;;;15.10;99.90;;;;;;7289703;32;20738;-62
2022/12/31 20:52:12;;;;;;;10.23;2.47;;;15.30;99.90;;;;;;7290626;32;21029;-60
2022/12/31 20:56:13;;;;;;;9.75;2.10;;;15.40;99.90;;;;;;7285873;32;20745;-61
2022/12/31 21:00:16;;;;;;;7.82;2.20;;;15.40;99.90;;;;;;7297046;32;20120;-63
2022/12/31 21:04:17;;;;;;;7.82;2.17;;;15.60;99.90;;;;;;7292469;32;20655;-62
2022/12/31 21:08:20;;;;;;;11.52;2.30;;;15.60;99.90;;;;;;7278862;32;20113;-63
2022/12/31 21:16:42;;;;;;;8.35;2.03;;;15.70;99.90;;;;;;7293346;32;20130;-64
2022/12/31 21:20:46;;;;;;;11.20;1.85;;;15.70;99.90;;;;;;7296718;32;20127;-63
2022/12/31 21:24:47;;;;;;;10.27;2.03;;;15.70;99.90;;;;;;7300897;32;20092;-63
2022/12/31 21:28:49;;;;;;;10.10;1.33;;;15.80;99.90;;;;;;7301049;32;20279;-63
2022/12/31 21:32:51;;;;;;;9.07;1.65;;;15.80;99.90;;;;;;7301087;32;20096;-63
2022/12/31 21:36:52;;;;;;;7.82;2.65;;;15.80;99.90;;;;;;7299237;32;20122;-62
2022/12/31 21:40:54;;;;;;;12.75;2.10;;;15.90;99.90;;;;;;7296744;32;20134;-63
2022/12/31 21:44:56;;;;;;;7.45;1.90;;;16.00;99.90;;;;;;7298032;32;20422;-62
2022/12/31 21:48:59;;;;;;;8.85;1.80;;;16.00;99.90;;;;;;7284255;32;20118;-62
2022/12/31 21:53:00;;;;;;;6.60;2.37;;;16.10;99.90;;;;;;7305303;32;20566;-63